Wetterdaten: Woche 30.07.18 - 05.08.18 (KW31)
Datum Zeit Temperatur Luftfeuchte Luftdruck Niederschlag Windrichtung Sonnenschein Solar Wind
30.07.2018 00:00 17,9 C 80 % 1012,2 hPa 0,0 l/m N 0,00 h 0 W/m 0,0 km/h (0 Bft)
30.07.2018 01:00 17,1 C 83 % 1012,4 hPa 0,0 l/m N 0,00 h 0 W/m 0,0 km/h (0 Bft)
30.07.2018 02:00 16,3 C 85 % 1012,3 hPa 0,0 l/m N 0,00 h 0 W/m 0,0 km/h (0 Bft)
30.07.2018 03:00 15,5 C 87 % 1012,5 hPa 0,0 l/m N 0,00 h 0 W/m 0,0 km/h (0 Bft)
30.07.2018 04:00 15,1 C 89 % 1012,6 hPa 0,0 l/m N 0,00 h 0 W/m 0,0 km/h (0 Bft)
30.07.2018 05:00 14,8 C 90 % 1012,8 hPa 0,0 l/m N 0,00 h 5 W/m 0,0 km/h (0 Bft)
30.07.2018 06:00 14,9 C 92 % 1013,3 hPa 0,0 l/m N 0,00 h 27 W/m 0,0 km/h (0 Bft)
30.07.2018 07:00 17,0 C 86 % 1013,3 hPa 0,0 l/m N 0,75 h 153 W/m 0,0 km/h (0 Bft)
30.07.2018 08:00 20,1 C 76 % 1013,6 hPa 0,0 l/m W 1,00 h 334 W/m 3,1 km/h (1 Bft)
30.07.2018 09:00 23,7 C 67 % 1013,6 hPa 0,0 l/m W 0,75 h 386 W/m 6,6 km/h (2 Bft)
30.07.2018 10:00 26,3 C 60 % 1013,5 hPa 0,0 l/m S-SW 0,92 h 588 W/m 8,3 km/h (2 Bft)
30.07.2018 11:00 28,2 C 49 % 1013,4 hPa 0,0 l/m S-SW 1,00 h 758 W/m 8,0 km/h (2 Bft)
30.07.2018 12:00 29,9 C 43 % 1013,3 hPa 0,0 l/m S-SO 1,00 h 841 W/m 10,6 km/h (2 Bft)
30.07.2018 13:00 31,3 C 38 % 1012,8 hPa 0,0 l/m S 0,92 h 820 W/m 11,4 km/h (2 Bft)
30.07.2018 14:00 32,1 C 31 % 1012,4 hPa 0,0 l/m W-SW 1,00 h 850 W/m 11,5 km/h (2 Bft)
30.07.2018 15:00 32,9 C 27 % 1012,1 hPa 0,0 l/m SW 1,00 h 770 W/m 10,7 km/h (2 Bft)
30.07.2018 16:00 33,2 C 26 % 1011,7 hPa 0,0 l/m SW 1,00 h 656 W/m 10,1 km/h (2 Bft)
30.07.2018 17:00 33,3 C 23 % 1011,3 hPa 0,0 l/m SO 1,00 h 501 W/m 8,0 km/h (2 Bft)
30.07.2018 18:00 32,8 C 25 % 1011,2 hPa 0,0 l/m SO 1,00 h 325 W/m 4,3 km/h (1 Bft)
30.07.2018 19:00 31,0 C 32 % 1011,4 hPa 0,0 l/m N 0,58 h 135 W/m 1,9 km/h (1 Bft)
30.07.2018 20:00 26,3 C 47 % 1011,7 hPa 0,0 l/m N 0,08 h 25 W/m 0,0 km/h (0 Bft)
30.07.2018 21:00 23,8 C 53 % 1012,3 hPa 0,0 l/m N 0,00 h 5 W/m 0,0 km/h (0 Bft)
30.07.2018 22:00 22,0 C 63 % 1012,7 hPa 0,0 l/m N 0,00 h 0 W/m 0,0 km/h (0 Bft)
30.07.2018 23:00 21,1 C 70 % 1012,8 hPa 0,0 l/m N 0,00 h 0 W/m 0,0 km/h (0 Bft)
31.07.2018 00:00 20,0 C 74 % 1012,8 hPa 0,0 l/m N 0,00 h 0 W/m 0,0 km/h (0 Bft)
31.07.2018 01:00 19,2 C 76 % 1012,8 hPa 0,0 l/m N 0,00 h 0 W/m 0,0 km/h (0 Bft)
31.07.2018 02:00 18,4 C 79 % 1012,6 hPa 0,0 l/m N 0,00 h 0 W/m 0,0 km/h (0 Bft)
31.07.2018 03:00 17,5 C 83 % 1012,5 hPa 0,0 l/m N 0,00 h 0 W/m 0,0 km/h (0 Bft)
31.07.2018 04:00 16,7 C 86 % 1012,2 hPa 0,0 l/m N 0,00 h 0 W/m 0,0 km/h (0 Bft)
31.07.2018 05:00 16,3 C 88 % 1012,0 hPa 0,0 l/m N 0,00 h 5 W/m 0,0 km/h (0 Bft)
31.07.2018 06:00 16,2 C 87 % 1012,3 hPa 0,0 l/m N 0,08 h 29 W/m 0,1 km/h (0 Bft)
31.07.2018 07:00 18,1 C 83 % 1012,4 hPa 0,0 l/m N 0,92 h 158 W/m 0,0 km/h (0 Bft)
31.07.2018 08:00 21,1 C 73 % 1012,9 hPa 0,0 l/m N 1,00 h 334 W/m 0,4 km/h (0 Bft)
31.07.2018 09:00 24,5 C 62 % 1013,0 hPa 0,0 l/m SO 0,75 h 387 W/m 3,5 km/h (1 Bft)
31.07.2018 10:00 27,2 C 56 % 1013,0 hPa 0,0 l/m SO 0,92 h 575 W/m 4,7 km/h (1 Bft)
31.07.2018 11:00 30,0 C 46 % 1013,0 hPa 0,0 l/m SO 1,00 h 760 W/m 7,1 km/h (2 Bft)
31.07.2018 12:00 31,6 C 40 % 1012,9 hPa 0,0 l/m S-SO 1,00 h 832 W/m 7,9 km/h (2 Bft)
31.07.2018 13:00 33,1 C 34 % 1012,7 hPa 0,0 l/m O-NO 1,00 h 854 W/m 10,1 km/h (2 Bft)
31.07.2018 14:00 33,7 C 31 % 1012,4 hPa 0,0 l/m N 1,00 h 833 W/m 9,7 km/h (2 Bft)
31.07.2018 15:00 34,5 C 29 % 1012,1 hPa 0,0 l/m O-NO 1,00 h 765 W/m 11,1 km/h (2 Bft)
31.07.2018 16:00 34,4 C 30 % 1012,1 hPa 0,0 l/m O 0,92 h 613 W/m 10,3 km/h (2 Bft)
31.07.2018 17:00 32,9 C 32 % 1012,1 hPa 0,0 l/m SO 0,25 h 217 W/m 6,0 km/h (2 Bft)
31.07.2018 18:00 29,6 C 46 % 1012,0 hPa 0,0 l/m N 0,00 h 93 W/m 0,0 km/h (0 Bft)
31.07.2018 19:00 28,0 C 52 % 1011,9 hPa 0,0 l/m N 0,00 h 52 W/m 0,0 km/h (0 Bft)
31.07.2018 20:00 26,5 C 54 % 1012,4 hPa 0,0 l/m N 0,17 h 26 W/m 0,1 km/h (0 Bft)
31.07.2018 21:00 25,2 C 57 % 1013,1 hPa 0,0 l/m O-SO 0,00 h 0 W/m 4,6 km/h (1 Bft)
31.07.2018 22:00 24,5 C 59 % 1013,7 hPa 0,0 l/m O-NO 0,00 h 0 W/m 5,1 km/h (1 Bft)
31.07.2018 23:00 23,1 C 66 % 1013,8 hPa 0,0 l/m N 0,00 h 0 W/m 0,3 km/h (0 Bft)
01.08.2018 00:00 22,8 C 68 % 1013,8 hPa 0,0 l/m N 0,00 h 0 W/m 0,0 km/h (0 Bft)
01.08.2018 01:00 21,7 C 72 % 1013,7 hPa 0,0 l/m N 0,00 h 0 W/m 0,0 km/h (0 Bft)
01.08.2018 02:00 21,2 C 74 % 1013,7 hPa 0,0 l/m O-NO 0,00 h 0 W/m 0,9 km/h (0 Bft)
01.08.2018 03:00 19,7 C 80 % 1013,5 hPa 0,0 l/m N 0,00 h 0 W/m 0,0 km/h (0 Bft)
01.08.2018 04:00 19,0 C 84 % 1013,6 hPa 0,0 l/m N 0,00 h 0 W/m 0,0 km/h (0 Bft)
01.08.2018 05:00 19,1 C 81 % 1013,4 hPa 0,0 l/m O-NO 0,00 h 5 W/m 2,3 km/h (1 Bft)
01.08.2018 06:00 19,4 C 78 % 1013,5 hPa 0,0 l/m N 0,17 h 34 W/m 0,1 km/h (0 Bft)
01.08.2018 07:00 21,0 C 74 % 1013,8 hPa 0,0 l/m NO 1,00 h 174 W/m 5,5 km/h (1 Bft)
01.08.2018 08:00 23,5 C 66 % 1014,2 hPa 0,0 l/m NO 1,00 h 323 W/m 8,0 km/h (2 Bft)
01.08.2018 09:00 25,9 C 58 % 1014,1 hPa 0,0 l/m N-NO 0,83 h 409 W/m 11,3 km/h (2 Bft)
01.08.2018 10:00 27,9 C 53 % 1014,0 hPa 0,0 l/m O-NO 0,92 h 553 W/m 15,3 km/h (3 Bft)
01.08.2018 11:00 29,7 C 48 % 1014,0 hPa 0,0 l/m O-NO 1,00 h 722 W/m 17,4 km/h (3 Bft)
01.08.2018 12:00 30,9 C 43 % 1013,8 hPa 0,0 l/m NO 1,00 h 809 W/m 22,6 km/h (4 Bft)
01.08.2018 13:00 32,3 C 40 % 1013,5 hPa 0,0 l/m O-NO 1,00 h 830 W/m 19,6 km/h (3 Bft)
01.08.2018 14:00 33,2 C 38 % 1013,1 hPa 0,0 l/m O-SO 1,00 h 803 W/m 19,4 km/h (3 Bft)
01.08.2018 15:00 33,5 C 36 % 1012,8 hPa 0,0 l/m NO 1,00 h 734 W/m 22,1 km/h (4 Bft)
01.08.2018 16:00 33,8 C 34 % 1012,3 hPa 0,0 l/m O-NO 1,00 h 625 W/m 19,8 km/h (4 Bft)
01.08.2018 17:00 32,2 C 44 % 1012,4 hPa 0,0 l/m N 0,92 h 434 W/m 26,1 km/h (4 Bft)
01.08.2018 18:00 29,1 C 51 % 1012,9 hPa 0,0 l/m N 0,83 h 274 W/m 29,9 km/h (5 Bft)
01.08.2018 19:00 26,4 C 60 % 1013,3 hPa 0,0 l/m N-NO 0,00 h 57 W/m 28,2 km/h (4 Bft)
01.08.2018 20:00 24,6 C 67 % 1014,4 hPa 0,0 l/m N 0,00 h 9 W/m 19,2 km/h (3 Bft)
01.08.2018 21:00 23,6 C 66 % 1015,9 hPa 0,0 l/m W-SW 0,00 h 0 W/m 14,8 km/h (3 Bft)
01.08.2018 22:00 21,6 C 79 % 1016,9 hPa 0,0 l/m SW 0,00 h 0 W/m 21,0 km/h (4 Bft)
01.08.2018 23:00 19,9 C 85 % 1017,2 hPa 0,0 l/m SW 0,00 h 0 W/m 16,1 km/h (3 Bft)
02.08.2018 00:00 19,6 C 86 % 1017,6 hPa 0,4 l/m SW 0,00 h 0 W/m 9,4 km/h (2 Bft)
02.08.2018 01:00 18,9 C 91 % 1018,1 hPa 0,2 l/m W-SW 0,00 h 0 W/m 4,4 km/h (1 Bft)
02.08.2018 02:00 18,6 C 92 % 1017,3 hPa 0,2 l/m W 0,00 h 0 W/m 2,7 km/h (1 Bft)
02.08.2018 03:00 17,9 C 91 % 1016,5 hPa 0,0 l/m W 0,00 h 0 W/m 3,5 km/h (1 Bft)
02.08.2018 04:00 17,4 C 92 % 1016,1 hPa 0,0 l/m N 0,00 h 0 W/m 1,5 km/h (1 Bft)
02.08.2018 05:00 17,2 C 95 % 1016,5 hPa 0,0 l/m N 0,00 h 0 W/m 3,3 km/h (1 Bft)
02.08.2018 06:00 17,6 C 93 % 1017,1 hPa 0,0 l/m N 0,00 h 16 W/m 0,3 km/h (0 Bft)
02.08.2018 07:00 18,6 C 91 % 1017,4 hPa 0,0 l/m N 0,67 h 150 W/m 0,0 km/h (0 Bft)
02.08.2018 08:00 20,5 C 82 % 1018,0 hPa 0,0 l/m N 0,75 h 259 W/m 0,0 km/h (0 Bft)
02.08.2018 09:00 22,4 C 72 % 1018,0 hPa 0,0 l/m N 0,67 h 377 W/m 0,0 km/h (0 Bft)
02.08.2018 10:00 24,3 C 65 % 1018,2 hPa 0,0 l/m W-NW 0,92 h 542 W/m 3,6 km/h (1 Bft)
02.08.2018 11:00 25,8 C 61 % 1018,1 hPa 0,0 l/m NO 1,00 h 709 W/m 9,4 km/h (2 Bft)
02.08.2018 12:00 26,9 C 57 % 1017,7 hPa 0,0 l/m N-NO 0,83 h 710 W/m 8,4 km/h (2 Bft)
02.08.2018 13:00 28,9 C 49 % 1017,3 hPa 0,0 l/m NO 1,00 h 837 W/m 14,2 km/h (3 Bft)
02.08.2018 14:00 30,0 C 47 % 1017,0 hPa 0,0 l/m O-NO 1,00 h 806 W/m 13,3 km/h (3 Bft)
02.08.2018 15:00 30,5 C 46 % 1016,4 hPa 0,0 l/m NO 1,00 h 727 W/m 14,5 km/h (3 Bft)
02.08.2018 16:00 30,9 C 46 % 1016,0 hPa 0,0 l/m NO 0,92 h 579 W/m 14,8 km/h (3 Bft)
02.08.2018 17:00 30,3 C 47 % 1015,9 hPa 0,0 l/m NO 0,67 h 410 W/m 12,9 km/h (3 Bft)
02.08.2018 18:00 30,4 C 50 % 1015,9 hPa 0,0 l/m NO 0,83 h 366 W/m 18,0 km/h (3 Bft)
02.08.2018 19:00 24,3 C 76 % 1016,6 hPa 0,6 l/m N-NO 0,08 h 89 W/m 20,0 km/h (4 Bft)
02.08.2018 20:00 21,6 C 87 % 1016,9 hPa 0,0 l/m N-NO 0,42 h 37 W/m 5,1 km/h (1 Bft)
02.08.2018 21:00 21,0 C 87 % 1017,3 hPa 0,0 l/m N-NO 0,00 h 6 W/m 2,4 km/h (1 Bft)
02.08.2018 22:00 20,1 C 89 % 1017,9 hPa 0,0 l/m N 0,00 h 0 W/m 0,8 km/h (0 Bft)
02.08.2018 23:00 19,2 C 93 % 1017,8 hPa 0,0 l/m N 0,00 h 0 W/m 0,0 km/h (0 Bft)
03.08.2018 00:00 18,7 C 94 % 1017,9 hPa 0,0 l/m N 0,00 h 0 W/m 0,0 km/h (0 Bft)
03.08.2018 01:00 18,3 C 95 % 1017,6 hPa 0,0 l/m N 0,00 h 0 W/m 0,0 km/h (0 Bft)
03.08.2018 02:00 18,2 C 95 % 1017,2 hPa 0,0 l/m N 0,00 h 0 W/m 2,1 km/h (1 Bft)
03.08.2018 03:00 18,2 C 95 % 1017,0 hPa 0,0 l/m N 0,00 h 0 W/m 0,0 km/h (0 Bft)
03.08.2018 04:00 17,9 C 95 % 1016,7 hPa 0,2 l/m N 0,00 h 0 W/m 0,5 km/h (0 Bft)
03.08.2018 05:00 17,8 C 95 % 1016,7 hPa 0,0 l/m N-NO 0,00 h 5 W/m 4,0 km/h (1 Bft)
03.08.2018 06:00 17,6 C 96 % 1016,8 hPa 0,0 l/m N 0,00 h 25 W/m 0,0 km/h (0 Bft)
03.08.2018 07:00 18,5 C 97 % 1016,8 hPa 0,0 l/m N 0,42 h 126 W/m 6,0 km/h (2 Bft)
03.08.2018 08:00 20,9 C 89 % 1016,9 hPa 0,0 l/m N-NO 1,00 h 297 W/m 12,8 km/h (3 Bft)
03.08.2018 09:00 23,2 C 80 % 1016,9 hPa 0,0 l/m NO 0,75 h 367 W/m 11,7 km/h (2 Bft)
03.08.2018 10:00 25,0 C 74 % 1016,8 hPa 0,0 l/m NO 0,92 h 553 W/m 15,3 km/h (3 Bft)
03.08.2018 11:00 27,2 C 66 % 1016,5 hPa 0,0 l/m NO 1,00 h 717 W/m 17,6 km/h (3 Bft)
03.08.2018 12:00 29,4 C 58 % 1015,9 hPa 0,0 l/m O-NO 1,00 h 791 W/m 17,4 km/h (3 Bft)
03.08.2018 13:00 30,8 C 52 % 1015,5 hPa 0,0 l/m NO 1,00 h 825 W/m 19,4 km/h (3 Bft)
03.08.2018 14:00 31,7 C 48 % 1015,0 hPa 0,0 l/m O-NO 1,00 h 826 W/m 21,7 km/h (4 Bft)
03.08.2018 15:00 32,2 C 46 % 1014,7 hPa 0,0 l/m NO 0,92 h 692 W/m 22,0 km/h (4 Bft)
03.08.2018 16:00 32,0 C 47 % 1014,3 hPa 0,0 l/m O 0,75 h 522 W/m 19,2 km/h (3 Bft)
03.08.2018 17:00 32,2 C 45 % 1013,8 hPa 0,0 l/m O-NO 1,00 h 455 W/m 18,2 km/h (3 Bft)
03.08.2018 18:00 31,8 C 45 % 1013,3 hPa 0,0 l/m O-NO 1,00 h 296 W/m 16,8 km/h (3 Bft)
03.08.2018 19:00 30,7 C 47 % 1013,3 hPa 0,0 l/m O-NO 0,58 h 125 W/m 13,7 km/h (3 Bft)
03.08.2018 20:00 28,6 C 54 % 1013,5 hPa 0,0 l/m NO 0,00 h 21 W/m 4,3 km/h (1 Bft)
03.08.2018 21:00 25,4 C 66 % 1014,0 hPa 0,0 l/m N 0,00 h 0 W/m 0,3 km/h (0 Bft)
03.08.2018 22:00 24,0 C 71 % 1014,1 hPa 0,0 l/m N 0,00 h 0 W/m 0,1 km/h (0 Bft)
03.08.2018 23:00 23,3 C 72 % 1014,3 hPa 0,0 l/m N 0,00 h 0 W/m 0,1 km/h (0 Bft)
04.08.2018 00:00 22,4 C 76 % 1014,2 hPa 0,0 l/m N 0,00 h 0 W/m 0,3 km/h (0 Bft)
04.08.2018 01:00 21,6 C 78 % 1013,8 hPa 0,0 l/m N 0,00 h 0 W/m 0,3 km/h (0 Bft)
04.08.2018 02:00 20,9 C 81 % 1013,4 hPa 0,0 l/m NO 0,00 h 0 W/m 0,9 km/h (0 Bft)
04.08.2018 03:00 21,0 C 79 % 1013,5 hPa 0,0 l/m NO 0,00 h 0 W/m 6,7 km/h (2 Bft)
04.08.2018 04:00 20,3 C 81 % 1013,4 hPa 0,0 l/m NO 0,00 h 0 W/m 1,7 km/h (1 Bft)
04.08.2018 05:00 18,8 C 87 % 1013,5 hPa 0,0 l/m N 0,00 h 0 W/m 0,0 km/h (0 Bft)
04.08.2018 06:00 18,3 C 89 % 1013,7 hPa 0,0 l/m N 0,08 h 25 W/m 0,0 km/h (0 Bft)
04.08.2018 07:00 19,5 C 87 % 1014,0 hPa 0,0 l/m N 0,58 h 133 W/m 0,0 km/h (0 Bft)
04.08.2018 08:00 22,7 C 78 % 1014,0 hPa 0,0 l/m N 1,00 h 307 W/m 0,1 km/h (0 Bft)
04.08.2018 09:00 25,4 C 68 % 1013,8 hPa 0,0 l/m N 0,83 h 380 W/m 2,4 km/h (1 Bft)
04.08.2018 10:00 28,1 C 56 % 1013,8 hPa 0,0 l/m O-NO 0,92 h 563 W/m 3,3 km/h (1 Bft)
04.08.2018 11:00 30,0 C 50 % 1013,7 hPa 0,0 l/m O 1,00 h 723 W/m 8,4 km/h (2 Bft)
04.08.2018 12:00 31,7 C 45 % 1013,3 hPa 0,0 l/m O-SO 0,92 h 776 W/m 13,6 km/h (3 Bft)
04.08.2018 13:00 30,3 C 47 % 1013,3 hPa 0,0 l/m O-SO 0,00 h 179 W/m 6,3 km/h (2 Bft)
04.08.2018 14:00 30,0 C 49 % 1013,0 hPa 0,0 l/m O-SO 0,33 h 387 W/m 3,1 km/h (1 Bft)
04.08.2018 15:00 31,1 C 45 % 1012,7 hPa 0,0 l/m O-SO 0,58 h 417 W/m 7,4 km/h (2 Bft)
04.08.2018 16:00 31,2 C 44 % 1012,7 hPa 0,0 l/m O-SO 0,25 h 299 W/m 3,6 km/h (1 Bft)
04.08.2018 17:00 30,7 C 47 % 1012,4 hPa 0,0 l/m O-SO 0,58 h 317 W/m 3,9 km/h (1 Bft)
04.08.2018 18:00 30,3 C 49 % 1012,2 hPa 0,0 l/m N 0,33 h 173 W/m 1,2 km/h (1 Bft)
04.08.2018 19:00 28,7 C 56 % 1012,6 hPa 0,0 l/m N 0,00 h 67 W/m 1,9 km/h (1 Bft)
04.08.2018 20:00 26,8 C 64 % 1012,9 hPa 0,0 l/m N 0,17 h 27 W/m 2,4 km/h (1 Bft)
04.08.2018 21:00 24,5 C 72 % 1013,1 hPa 0,0 l/m N 0,00 h 0 W/m 0,1 km/h (0 Bft)
04.08.2018 22:00 23,1 C 76 % 1013,3 hPa 0,0 l/m N 0,00 h 0 W/m 0,5 km/h (0 Bft)
04.08.2018 23:00 23,2 C 71 % 1013,1 hPa 0,0 l/m N 0,00 h 0 W/m 1,3 km/h (1 Bft)
05.08.2018 00:00 22,8 C 69 % 1013,2 hPa 0,0 l/m O 0,00 h 0 W/m 2,3 km/h (1 Bft)
05.08.2018 01:00 22,2 C 70 % 1013,3 hPa 0,0 l/m N 0,00 h 0 W/m 0,4 km/h (0 Bft)
05.08.2018 02:00 19,8 C 83 % 1013,3 hPa 0,0 l/m N 0,00 h 0 W/m 0,3 km/h (0 Bft)
05.08.2018 03:00 18,9 C 88 % 1013,3 hPa 0,0 l/m N 0,00 h 0 W/m 0,0 km/h (0 Bft)
05.08.2018 04:00 18,7 C 87 % 1013,3 hPa 0,0 l/m N 0,00 h 0 W/m 0,0 km/h (0 Bft)
05.08.2018 05:00 18,0 C 88 % 1013,3 hPa 0,0 l/m N 0,00 h 0 W/m 0,0 km/h (0 Bft)
05.08.2018 06:00 17,6 C 91 % 1013,6 hPa 0,0 l/m N 0,17 h 29 W/m 0,0 km/h (0 Bft)
05.08.2018 07:00 18,7 C 90 % 1014,0 hPa 0,0 l/m N 0,58 h 129 W/m 0,1 km/h (0 Bft)
05.08.2018 08:00 21,2 C 80 % 1014,4 hPa 0,0 l/m O 1,00 h 297 W/m 1,3 km/h (1 Bft)
05.08.2018 09:00 24,8 C 66 % 1014,5 hPa 0,0 l/m O 0,83 h 386 W/m 9,1 km/h (2 Bft)
05.08.2018 10:00 26,8 C 59 % 1014,7 hPa 0,0 l/m NO 0,92 h 568 W/m 9,8 km/h (2 Bft)
05.08.2018 11:00 28,4 C 54 % 1014,8 hPa 0,0 l/m O-NO 1,00 h 733 W/m 15,4 km/h (3 Bft)
05.08.2018 12:00 29,7 C 50 % 1014,6 hPa 0,0 l/m NO 1,00 h 808 W/m 14,6 km/h (3 Bft)
05.08.2018 13:00 30,9 C 47 % 1014,2 hPa 0,0 l/m NO 1,00 h 853 W/m 15,2 km/h (3 Bft)
05.08.2018 14:00 31,4 C 46 % 1014,0 hPa 0,0 l/m NO 1,00 h 801 W/m 16,6 km/h (3 Bft)
05.08.2018 15:00 31,7 C 44 % 1013,5 hPa 0,0 l/m NO 0,83 h 671 W/m 16,6 km/h (3 Bft)
05.08.2018 16:00 30,7 C 46 % 1013,3 hPa 0,0 l/m O-NO 0,42 h 364 W/m 17,7 km/h (3 Bft)
05.08.2018 17:00 30,8 C 45 % 1012,9 hPa 0,0 l/m NO 0,83 h 420 W/m 14,8 km/h (3 Bft)
05.08.2018 18:00 28,9 C 51 % 1012,8 hPa 0,0 l/m O-NO 1,00 h 289 W/m 16,4 km/h (3 Bft)
05.08.2018 19:00 26,8 C 56 % 1012,8 hPa 0,0 l/m NO 0,67 h 126 W/m 13,0 km/h (3 Bft)
05.08.2018 20:00 27,0 C 54 % 1013,4 hPa 0,0 l/m O-NO 0,17 h 21 W/m 5,6 km/h (1 Bft)
05.08.2018 21:00 24,9 C 61 % 1013,9 hPa 0,0 l/m O-NO 0,00 h 0 W/m 2,9 km/h (1 Bft)
05.08.2018 22:00 23,2 C 66 % 1014,2 hPa 0,0 l/m N 0,00 h 0 W/m 0,3 km/h (0 Bft)
05.08.2018 23:00 21,9 C 71 % 1014,3 hPa 0,0 l/m N 0,00 h 0 W/m 0,0 km/h (0 Bft)
Min-Datum _ 30.07.18 30.07.18 30.07.18 - - - - 30.07.18
_ Min-Zeit 06:10 17:30 17:40 - - - - 00:00
Minimum _ 14,6 C 22 % 1011,1 hPa - - - - 0,0 km/h (0 Bft)
Max-Datum _ 31.07.18 03.08.18 02.08.18 02.08.18 - 30.07.18 04.08.18 01.08.18
_ Max-Zeit 15:55 07:15 01:25 19:00 - 07:10 12:40 18:30
Maximum _ 34,9 C 97 % 1018,3 hPa 0,6 l/m - 0,08 h 914 W/m 37,0 km/h
N (5 Bft)
Durchschnitt _ 24,7 C 65 % 1014,1 hPa #1,6 l/m NO #74:45 h 406 W/m 6,7 km/h (2 Bft)